Time;durP1;ratioP1;P1;durP2;ratioP2;P2;SDS_P1;SDS_P2;PMS_P1;PMS_P2;Temp;Humidity;BMP_temperature;BMP_pressure;BME280_temperature;BME280_humidity;BME280_pressure;Samples;Min_cycle;Max_cycle;Signal;HPM_P1;HPM_P2
2023/07/09 00:00:27;;;;;;;14.05;8.43;;;;;;;22.92;76.76;100991.25;4973728;28;20057;-79
2023/07/09 00:02:55;;;;;;;12.38;8.85;;;;;;;22.93;76.68;100988.38;4974349;28;20162;-79
2023/07/09 00:05:21;;;;;;;12.57;7.78;;;;;;;22.93;76.74;100992.91;4975964;28;20054;-75
2023/07/09 00:07:48;;;;;;;11.63;8.55;;;;;;;22.88;77.13;100987.41;4975281;28;20078;-80
2023/07/09 00:10:17;;;;;;;13.10;8.60;;;;;;;22.83;77.39;100986.25;4975925;28;20061;-80
2023/07/09 00:12:45;;;;;;;12.52;7.90;;;;;;;22.82;77.42;100981.97;4976565;28;20130;-79
2023/07/09 00:15:13;;;;;;;13.35;9.13;;;;;;;22.90;77.36;100988.81;4968760;28;20106;-78
2023/07/09 00:17:40;;;;;;;13.25;8.73;;;;;;;22.74;77.66;100987.59;4971694;28;20046;-79
2023/07/09 00:20:13;;;;;;;13.07;8.55;;;;;;;22.70;77.74;100985.59;4976264;28;20081;-81
2023/07/09 00:22:40;;;;;;;16.05;8.80;;;;;;;22.62;78.10;100986.75;4976371;28;20058;-79
2023/07/09 00:25:08;;;;;;;12.13;8.98;;;;;;;22.67;78.19;100978.06;4979495;28;20113;-79
2023/07/09 00:27:35;;;;;;;10.77;8.88;;;;;;;22.70;78.24;100985.59;4980173;28;20063;-79
2023/07/09 00:30:03;;;;;;;12.00;8.80;;;;;;;22.66;78.40;100993.25;4979326;28;20566;-78
2023/07/09 00:32:30;;;;;;;11.68;8.65;;;;;;;22.53;78.89;100985.44;4976813;28;20130;-81
2023/07/09 00:34:56;;;;;;;11.27;8.55;;;;;;;22.43;79.00;100985.16;4980547;28;20058;-82
2023/07/09 00:37:26;;;;;;;13.25;8.68;;;;;;;22.39;79.25;100986.66;4974949;28;20053;-80
2023/07/09 00:39:53;;;;;;;12.68;9.13;;;;;;;22.27;79.74;100975.09;4980190;28;20047;-79
2023/07/09 00:42:23;;;;;;;14.43;9.13;;;;;;;22.22;80.08;100974.97;4972659;28;20391;-78
2023/07/09 00:44:52;;;;;;;16.45;8.70;;;;;;;22.23;80.21;100979.25;4981771;28;20047;-79
2023/07/09 00:47:27;;;;;;;15.05;9.10;;;;;;;22.25;80.50;100978.00;4974364;28;20133;-82
2023/07/09 00:50:03;;;;;;;13.70;9.63;;;;;;;22.21;80.12;100981.34;4981782;28;20047;-79
2023/07/09 00:52:35;;;;;;;14.27;8.70;;;;;;;22.16;80.50;100982.84;4974034;28;20499;-80
2023/07/09 00:55:07;;;;;;;16.13;8.25;;;;;;;22.12;80.75;100987.00;4980588;28;20050;-80
2023/07/09 00:57:38;;;;;;;14.07;8.75;;;;;;;22.15;80.93;100986.53;4980924;28;20078;-80
2023/07/09 01:00:10;;;;;;;13.93;9.48;;;;;;;22.10;80.88;100981.06;4971634;28;20487;-78
2023/07/09 01:02:44;;;;;;;13.98;8.70;;;;;;;22.05;81.11;100978.25;4971313;28;20089;-79
2023/07/09 01:05:13;;;;;;;11.82;8.88;;;;;;;21.97;81.47;100991.84;4968751;28;20114;-79
2023/07/09 01:07:41;;;;;;;10.77;8.20;;;;;;;22.00;81.72;100991.41;4971181;28;20408;-79
2023/07/09 01:10:08;;;;;;;13.18;8.40;;;;;;;21.92;81.79;100993.53;4980538;28;20118;-80
2023/07/09 01:12:34;;;;;;;14.95;9.32;;;;;;;21.96;81.62;100995.53;4976628;28;20126;-80
2023/07/09 01:15:01;;;;;;;12.48;9.30;;;;;;;21.91;81.86;100995.38;4974149;28;20146;-79
2023/07/09 01:17:29;;;;;;;11.02;8.65;;;;;;;21.89;81.88;100989.47;4974917;28;20055;-79
2023/07/09 01:19:58;;;;;;;12.70;8.88;;;;;;;21.80;82.20;100990.78;4982018;28;20451;-79
2023/07/09 01:22:27;;;;;;;15.52;9.00;;;;;;;21.82;82.43;100997.53;4979785;28;20070;-79
2023/07/09 01:25:00;;;;;;;13.32;8.88;;;;;;;21.85;82.60;101004.25;4993507;28;20074;-78
2023/07/09 01:27:30;;;;;;;14.00;9.10;;;;;;;21.84;82.97;101003.44;4992056;28;20055;-78
2023/07/09 01:29:59;;;;;;;11.93;8.70;;;;;;;21.90;82.76;101000.94;4988380;28;20162;-77
2023/07/09 01:32:26;;;;;;;11.23;8.82;;;;;;;21.81;82.97;101003.06;4974542;28;20054;-78
2023/07/09 01:34:56;;;;;;;10.75;8.52;;;;;;;21.71;83.50;101013.44;4980268;28;20050;-80
2023/07/09 01:37:27;;;;;;;13.77;9.00;;;;;;;21.70;83.58;101006.50;4976578;28;20055;-80
2023/07/09 01:39:54;;;;;;;13.13;9.60;;;;;;;21.64;84.15;101018.00;4979519;28;20081;-80
2023/07/09 01:42:23;;;;;;;12.90;9.27;;;;;;;21.51;84.38;101009.09;4979489;28;20109;-79
2023/07/09 01:44:51;;;;;;;15.50;9.20;;;;;;;21.48;84.67;101009.53;4979227;28;20547;-78
2023/07/09 01:47:18;;;;;;;12.18;9.52;;;;;;;21.60;84.30;101016.81;4974115;28;20089;-81
2023/07/09 01:49:46;;;;;;;15.15;9.55;;;;;;;21.60;84.26;101006.97;4966392;28;20123;-81
2023/07/09 01:52:16;;;;;;;13.05;9.38;;;;;;;21.58;84.33;101005.56;4965111;28;20085;-80
2023/07/09 01:54:49;;;;;;;13.85;9.07;;;;;;;21.53;84.95;101001.72;4979953;28;20050;-79
2023/07/09 01:57:22;;;;;;;13.32;10.20;;;;;;;21.47;85.16;101007.09;4965259;28;20055;-80
2023/07/09 01:59:49;;;;;;;16.23;9.90;;;;;;;21.52;85.13;101005.41;4976422;28;20081;-80
2023/07/09 02:02:18;;;;;;;17.60;9.93;;;;;;;21.48;85.13;101009.53;4973779;28;20082;-79
2023/07/09 02:04:46;;;;;;;19.90;10.05;;;;;;;21.49;85.10;101011.16;4980169;28;20057;-79
2023/07/09 02:07:12;;;;;;;14.63;9.38;;;;;;;21.47;85.30;101013.25;4973144;28;20426;-80
2023/07/09 02:09:39;;;;;;;12.40;9.65;;;;;;;21.47;85.36;101009.75;4979386;28;20047;-81
2023/07/09 02:12:08;;;;;;;15.65;10.02;;;;;;;21.46;85.09;101016.94;4977844;28;20133;-80
2023/07/09 02:14:35;;;;;;;19.17;10.13;;;;;;;21.42;84.99;101014.91;4974671;28;20047;-80
2023/07/09 02:17:01;;;;;;;15.75;10.13;;;;;;;21.36;85.48;101018.44;4970901;28;20129;-80
2023/07/09 02:19:29;;;;;;;13.43;9.70;;;;;;;21.24;85.94;101013.03;4978391;28;20134;-79
2023/07/09 02:21:56;;;;;;;15.90;10.63;;;;;;;21.12;86.41;101020.88;4973114;28;20489;-79
2023/07/09 02:24:24;;;;;;;18.08;10.45;;;;;;;21.10;86.57;101022.94;4978031;28;20078;-79
2023/07/09 02:26:51;;;;;;;14.00;10.55;;;;;;;21.06;86.65;101020.91;4970257;28;20055;-79
2023/07/09 02:29:19;;;;;;;14.43;10.68;;;;;;;21.05;87.08;101013.97;4977398;28;20153;-79
2023/07/09 02:31:46;;;;;;;15.85;10.90;;;;;;;21.09;87.10;101023.16;4972295;28;20156;-78
2023/07/09 02:34:12;;;;;;;14.13;9.65;;;;;;;21.08;87.12;101025.00;4977567;28;20125;-79
2023/07/09 02:36:42;;;;;;;17.13;10.52;;;;;;;21.07;86.90;101022.53;4976042;28;20137;-80
2023/07/09 02:39:10;;;;;;;16.30;10.18;;;;;;;21.06;86.95;101020.91;4978996;28;20431;-80
2023/07/09 02:41:36;;;;;;;16.75;10.00;;;;;;;20.98;87.28;101026.47;4978547;28;20057;-80
2023/07/09 02:44:03;;;;;;;18.70;10.73;;;;;;;20.98;87.44;101024.63;4970438;28;20114;-80
2023/07/09 02:46:31;;;;;;;14.68;10.02;;;;;;;20.86;87.81;101021.03;4967683;28;20126;-81
2023/07/09 02:48:58;;;;;;;16.95;10.30;;;;;;;20.84;88.04;101023.91;4961403;28;20133;-79
2023/07/09 02:51:26;;;;;;;14.02;10.15;;;;;;;20.83;88.05;101024.94;4959256;28;20055;-80
2023/07/09 02:53:53;;;;;;;15.52;9.95;;;;;;;20.81;88.15;101026.97;4960444;28;20053;-80
2023/07/09 02:56:19;;;;;;;12.48;9.85;;;;;;;20.78;88.28;101035.41;4963934;28;20409;-80
2023/07/09 02:58:46;;;;;;;12.85;10.27;;;;;;;20.82;88.04;101033.13;4978026;28;20141;-80
2023/07/09 03:01:13;;;;;;;11.35;9.35;;;;;;;20.81;87.88;101029.66;4971975;28;20039;-79
2023/07/09 03:03:41;;;;;;;14.20;10.07;;;;;;;20.74;88.25;101023.56;4972033;28;20478;-80
2023/07/09 03:06:08;;;;;;;13.38;10.35;;;;;;;20.78;88.34;101035.41;4976844;28;20086;-80
2023/07/09 03:08:35;;;;;;;18.45;10.82;;;;;;;20.79;88.30;101036.25;4970616;28;20082;-80
2023/07/09 03:11:08;;;;;;;15.30;10.70;;;;;;;20.82;88.56;101047.22;4989556;28;20074;-79
2023/07/09 03:13:35;;;;;;;15.40;10.43;;;;;;;20.84;88.22;101045.19;4989476;28;20062;-79
2023/07/09 03:16:01;;;;;;;16.88;11.10;;;;;;;20.79;88.59;101042.38;4969147;28;20043;-78
2023/07/09 03:18:28;;;;;;;15.48;10.88;;;;;;;20.72;88.77;101044.25;4977223;28;20137;-79
2023/07/09 03:20:56;;;;;;;14.85;10.68;;;;;;;20.68;88.86;101045.69;4976579;28;20081;-78
2023/07/09 03:23:23;;;;;;;13.13;10.00;;;;;;;20.66;89.11;101045.09;4973190;28;20110;-79
2023/07/09 03:25:49;;;;;;;14.25;10.07;;;;;;;20.70;88.98;101054.28;4977001;28;20050;-77
2023/07/09 03:28:16;;;;;;;14.40;10.82;;;;;;;20.68;89.30;101059.00;4976280;28;20142;-77
2023/07/09 03:30:43;;;;;;;14.73;10.27;;;;;;;20.69;89.21;101055.31;4972115;28;20513;-79
2023/07/09 03:33:11;;;;;;;15.40;10.45;;;;;;;20.71;89.03;101055.09;4966779;28;20048;-80
2023/07/09 03:35:38;;;;;;;15.20;10.35;;;;;;;20.69;89.26;101065.13;4967137;28;20138;-80
2023/07/09 03:38:06;;;;;;;16.63;10.60;;;;;;;20.73;89.42;101064.50;4965269;28;20055;-79
2023/07/09 03:40:33;;;;;;;18.50;10.30;;;;;;;20.77;89.67;101065.69;4976668;28;20574;-79
2023/07/09 03:43:00;;;;;;;16.48;10.43;;;;;;;20.70;89.34;101069.41;4976584;28;20057;-79
2023/07/09 03:45:27;;;;;;;13.38;10.05;;;;;;;20.77;89.62;101068.34;4974068;28;20135;-79
2023/07/09 03:47:53;;;;;;;14.30;10.10;;;;;;;20.72;89.49;101062.03;4973444;28;20051;-77
2023/07/09 03:50:20;;;;;;;15.00;10.10;;;;;;;20.74;89.59;101066.13;4963315;28;20135;-80
2023/07/09 03:52:47;;;;;;;16.92;10.35;;;;;;;20.67;89.84;101069.84;4968386;28;20122;-79
2023/07/09 03:55:15;;;;;;;12.45;10.05;;;;;;;20.67;90.11;101072.50;4971301;28;20117;-77
2023/07/09 03:57:42;;;;;;;17.95;10.65;;;;;;;20.73;89.73;101077.78;4981961;28;20553;-79
2023/07/09 04:00:10;;;;;;;13.40;10.70;;;;;;;20.70;89.63;101075.56;4973946;28;20138;-78
2023/07/09 04:02:37;;;;;;;11.32;9.25;;;;;;;20.76;89.56;101080.03;4976171;28;20069;-80
2023/07/09 04:05:04;;;;;;;13.82;10.02;;;;;;;20.77;89.59;101084.31;4980395;28;20082;-80
2023/07/09 04:07:30;;;;;;;16.15;9.95;;;;;;;20.99;89.09;101079.47;4978609;28;20475;-78
2023/07/09 04:09:57;;;;;;;17.30;9.57;;;;;;;21.25;88.14;101078.53;4978557;28;20070;-79
2023/07/09 04:12:25;;;;;;;12.70;9.60;;;;;;;21.39;87.18;101093.38;4982244;28;20138;-81
2023/07/09 04:14:52;;;;;;;15.30;9.68;;;;;;;21.43;86.36;101083.91;4987819;28;20085;-81
2023/07/09 04:17:18;;;;;;;17.92;9.70;;;;;;;21.36;86.76;101085.00;4981211;28;20277;-82
2023/07/09 04:19:45;;;;;;;16.45;9.52;;;;;;;21.62;86.07;101087.47;4988413;28;20090;-82
2023/07/09 04:22:12;;;;;;;18.45;10.13;;;;;;;21.56;85.79;101080.34;4987534;28;20159;-80
2023/07/09 04:24:39;;;;;;;15.55;10.27;;;;;;;21.41;86.02;101078.00;4985293;28;20133;-81
2023/07/09 04:27:16;;;;;;;15.77;9.73;;;;;;;21.68;85.42;101073.28;4985736;28;20110;-80
2023/07/09 09:56:24;;;;;;;10.85;7.22;;;;;;;34.52;47.67;100943.53;4971272;29;20063;-80
2023/07/09 09:59:36;;;;;;;;;;;;;;;;;;;;;
2023/07/09 10:06:22;;;;;;;10.50;6.88;;;;;;;34.88;46.58;100916.31;4905526;29;20055;-80
2023/07/09 10:18:34;;;;;;;11.77;6.88;;;;;;;34.58;47.52;100904.25;4872313;29;20117;-81
2023/07/09 10:21:07;;;;;;;10.57;7.35;;;;;;;35.14;46.83;100902.81;4886585;29;20580;-80
2023/07/09 10:23:41;;;;;;;10.68;7.32;;;;;;;34.70;47.09;100909.13;4942571;29;20111;-79
2023/07/09 10:26:14;;;;;;;11.85;7.70;;;;;;;35.01;46.26;100901.00;4959123;29;20059;-81
2023/07/09 10:28:56;;;;;;;9.73;6.97;;;;;;;34.93;47.22;100912.66;4959295;28;20134;-81
2023/07/09 10:31:35;;;;;;;9.55;6.38;;;;;;;35.71;46.63;100916.47;4959296;29;20422;-79
2023/07/09 10:34:13;;;;;;;9.25;6.85;;;;;;;35.99;45.74;100919.72;4959375;29;20483;-79
2023/07/09 10:37:01;;;;;;;11.98;6.80;;;;;;;35.25;45.59;100908.78;4958863;29;20488;-79
2023/07/09 10:39:34;;;;;;;12.02;7.28;;;;;;;35.25;45.43;100906.06;4959540;28;20054;-81
2023/07/09 10:42:03;;;;;;;8.90;6.85;;;;;;;34.91;46.72;100912.97;4961218;29;20126;-81
2023/07/09 10:44:35;;;;;;;10.70;7.32;;;;;;;34.90;46.55;100913.28;4960334;29;20138;-81
2023/07/09 10:47:06;;;;;;;8.55;7.03;;;;;;;35.25;45.92;100901.44;4959601;28;20396;-80
2023/07/09 10:49:39;;;;;;;9.40;7.03;;;;;;;35.61;46.72;100914.03;4958994;28;20051;-80
2023/07/09 10:52:12;;;;;;;8.98;6.78;;;;;;;35.14;45.52;100902.81;4959373;29;20110;-81
2023/07/09 10:54:47;;;;;;;10.10;6.68;;;;;;;35.76;46.47;100910.88;4959865;29;20065;-79
2023/07/09 10:57:19;;;;;;;11.25;7.15;;;;;;;35.47;45.78;100899.75;4964095;29;20114;-80
2023/07/09 10:59:50;;;;;;;9.98;6.75;;;;;;;36.24;46.57;100912.66;4973299;29;20071;-79
2023/07/09 11:02:22;;;;;;;8.25;6.43;;;;;;;36.39;44.62;100905.97;4972104;28;20324;-79
2023/07/09 11:04:54;;;;;;;10.35;6.72;;;;;;;35.73;44.45;100897.09;4969542;29;20043;-80
2023/07/09 11:07:26;;;;;;;11.93;7.68;;;;;;;35.80;44.31;100886.56;4960079;28;20098;-82
2023/07/09 11:09:56;;;;;;;7.88;6.63;;;;;;;36.09;43.98;100894.09;4959829;29;20107;-79
2023/07/09 11:12:28;;;;;;;15.00;7.45;;;;;;;36.44;43.69;100884.78;4959921;29;20052;-82
2023/07/09 11:15:00;;;;;;;11.07;7.00;;;;;;;35.66;44.65;100867.59;4960009;29;20137;-80
2023/07/09 11:17:28;;;;;;;11.55;6.60;;;;;;;36.17;44.99;100877.75;4959950;29;20504;-80
2023/07/09 11:19:58;;;;;;;8.65;6.88;;;;;;;35.58;44.55;100858.31;4957927;29;20083;-80
2023/07/09 11:22:28;;;;;;;11.20;6.72;;;;;;;35.83;44.84;100867.66;4957198;28;20043;-79
2023/07/09 11:25:08;;;;;;;10.02;6.75;;;;;;;36.67;43.95;100849.13;4957740;28;20094;-78
2023/07/09 11:27:45;;;;;;;8.88;6.35;;;;;;;36.62;43.24;100846.56;4957566;28;20052;-80
2023/07/09 11:30:22;;;;;;;8.70;6.60;;;;;;;36.83;43.02;100850.22;4957895;29;20078;-79
2023/07/09 11:32:53;;;;;;;8.13;6.90;;;;;;;37.03;43.08;100843.22;4958906;29;20050;-79
2023/07/09 11:35:23;;;;;;;;;;;;;;;37.53;42.42;100848.72;4959921;28;20061;-79
2023/07/09 11:37:49;;;;;;;10.48;6.88;;;;;;;36.94;43.48;100848.72;4959024;29;19949;-79
2023/07/09 11:40:18;;;;;;;9.95;7.05;;;;;;;37.02;43.59;100845.16;4958612;28;20047;-81
2023/07/09 11:42:51;;;;;;;11.60;6.90;;;;;;;36.51;42.65;100836.03;4959802;29;20051;-81
2023/07/09 11:45:25;;;;;;;9.18;6.70;;;;;;;36.26;42.92;100834.16;4959824;29;20110;-81
2023/07/09 11:47:56;;;;;;;13.95;7.28;;;;;;;36.36;43.13;100833.84;4958435;28;20508;-80
2023/07/09 11:50:28;;;;;;;9.15;6.50;;;;;;;36.81;42.67;100830.66;4959338;29;20079;-81
2023/07/09 11:52:58;;;;;;;10.50;6.78;;;;;;;37.14;40.81;100831.59;4962164;29;20225;-81
2023/07/09 11:55:32;;;;;;;7.68;5.70;;;;;;;36.54;40.02;100824.47;4960936;28;20051;-80
2023/07/09 11:58:01;;;;;;;9.52;6.43;;;;;;;37.26;39.79;100821.94;4958282;29;20131;-79
2023/07/09 12:00:31;;;;;;;10.90;6.00;;;;;;;37.53;38.99;100832.34;4958766;29;20043;-81
2023/07/09 12:02:58;;;;;;;8.23;5.90;;;;;;;37.39;40.38;100837.25;4958985;29;20051;-81
2023/07/09 12:05:30;;;;;;;8.23;6.03;;;;;;;37.39;39.65;100837.25;4960207;29;20071;-80
2023/07/09 12:07:58;;;;;;;9.23;6.32;;;;;;;36.85;40.55;100834.34;4959779;29;20131;-83
2023/07/09 12:10:29;;;;;;;9.55;6.18;;;;;;;37.44;40.56;100847.97;4962090;29;20071;-81
2023/07/09 12:13:06;;;;;;;7.80;5.90;;;;;;;37.27;39.24;100831.72;4962424;28;20055;-82
2023/07/09 12:19:05;;;;;;;10.20;6.20;;;;;;;37.07;39.97;100801.31;4951788;28;20538;-81
2023/07/09 12:29:19;;;;;;;11.30;6.10;;;;;;;37.90;39.00;100800.56;5022480;23;20066;-80
2023/07/09 12:45:29;;;;;;;7.97;6.05;;;;;;;36.21;38.20;100755.31;4867564;29;20087;-82
2023/07/09 12:55:19;;;;;;;7.65;5.95;;;;;;;36.51;38.61;100750.72;4832670;29;20072;-82
2023/07/09 12:58:36;;;;;;;10.70;5.82;;;;;;;36.28;39.24;100757.56;4925831;23;20086;-81
2023/07/09 13:05:10;;;;;;;7.68;5.55;;;;;;;35.77;39.29;100737.44;4961142;29;20090;-82
2023/07/09 13:15:37;;;;;;;;;;;;;;;;;;;;;
2023/07/09 13:31:40;;;;;;;;;;;;;;;;;;;;;
2023/07/09 13:38:31;;;;;;;8.38;5.80;;;;;;;34.78;43.42;100744.50;4918428;29;20055;-81
2023/07/09 14:24:46;;;;;;;;;;;;;;;;;;;;;
2023/07/09 14:48:10;;;;;;;19.77;7.72;;;;;;;24.03;92.61;101027.81;4800872;29;20066;-76
2023/07/09 14:50:37;;;;;;;18.98;9.00;;;;;;;23.11;100.00;100982.16;4836789;29;20056;-80
2023/07/09 14:53:04;;;;;;;19.52;8.95;;;;;;;22.52;100.00;100965.97;4961168;29;20227;-77
2023/07/09 14:55:30;;;;;;;15.02;7.82;;;;;;;22.41;100.00;100945.38;4962357;28;20062;-80
2023/07/09 14:58:00;;;;;;;12.23;7.22;;;;;;;22.70;100.00;100949.06;4962560;28;20083;-79
2023/07/09 15:00:27;;;;;;;15.13;7.88;;;;;;;22.66;100.00;100947.91;4963051;28;20488;-80
2023/07/09 15:02:55;;;;;;;13.43;7.22;;;;;;;22.61;100.00;100944.31;4961313;28;20111;-82
2023/07/09 15:05:25;;;;;;;13.07;6.88;;;;;;;22.38;100.00;100956.50;4961536;28;20051;-82
2023/07/09 15:07:52;;;;;;;10.02;7.47;;;;;;;22.36;100.00;100949.75;4964328;28;20078;-82
2023/07/09 15:10:26;;;;;;;15.73;8.68;;;;;;;22.39;100.00;100955.47;4964848;28;20106;-84
2023/07/09 15:12:54;;;;;;;11.57;8.65;;;;;;;22.55;100.00;100962.03;4966003;28;20109;-82
2023/07/09 15:15:24;;;;;;;15.82;9.18;;;;;;;22.65;100.00;100951.63;4965060;28;20047;-81
2023/07/09 15:17:51;;;;;;;14.02;8.88;;;;;;;22.76;100.00;100993.50;4966732;28;20436;-83
2023/07/09 15:20:20;;;;;;;12.20;9.80;;;;;;;23.05;100.00;101017.75;4966733;28;20047;-83
2023/07/09 15:22:48;;;;;;;17.67;12.15;;;;;;;23.18;100.00;101044.22;4964723;28;20058;-82
2023/07/09 15:25:16;;;;;;;16.60;11.63;;;;;;;23.30;100.00;101066.44;4955145;29;20087;-83
2023/07/09 15:27:43;;;;;;;16.92;12.35;;;;;;;23.38;100.00;101087.47;4961708;28;20142;-80
2023/07/09 15:30:15;;;;;;;16.00;12.10;;;;;;;23.65;100.00;101127.94;4961133;28;20067;-83
2023/07/09 15:32:41;;;;;;;18.17;13.60;;;;;;;23.72;100.00;101154.56;4955939;29;20527;-82
2023/07/09 15:35:09;;;;;;;17.65;14.20;;;;;;;23.85;100.00;101180.25;4960118;28;20066;-82
2023/07/09 15:37:35;;;;;;;18.10;13.52;;;;;;;24.17;100.00;101186.91;4962105;28;20055;-82
2023/07/09 15:40:04;;;;;;;16.80;13.93;;;;;;;24.28;100.00;101170.06;4961615;29;20110;-85
2023/07/09 15:42:31;;;;;;;18.55;14.57;;;;;;;24.27;100.00;101167.63;4963610;28;20047;-83
2023/07/09 15:44:58;;;;;;;15.82;14.10;;;;;;;24.12;100.00;101171.56;4961001;28;20051;-84
2023/07/09 15:47:28;;;;;;;15.32;13.65;;;;;;;24.38;100.00;101185.53;4959287;28;20055;-83
2023/07/09 15:49:55;;;;;;;18.02;13.70;;;;;;;24.43;100.00;101185.66;4963678;28;20047;-82
2023/07/09 15:52:21;;;;;;;13.88;10.82;;;;;;;24.13;99.80;101162.50;4963213;28;20515;-83
2023/07/09 15:54:48;;;;;;;16.83;10.27;;;;;;;24.00;99.51;101170.75;4962850;29;20114;-82
2023/07/09 15:57:17;;;;;;;14.20;9.70;;;;;;;23.95;99.24;101181.31;4962376;28;20082;-83
2023/07/09 15:59:43;;;;;;;12.75;9.10;;;;;;;24.15;98.75;101176.44;4963616;28;20094;-83
2023/07/09 16:02:13;;;;;;;14.95;10.70;;;;;;;24.34;97.19;101157.63;4963216;28;20079;-83
2023/07/09 16:04:39;;;;;;;15.63;10.98;;;;;;;24.59;97.79;101155.50;4963832;28;20134;-82
2023/07/09 16:07:06;;;;;;;18.48;10.77;;;;;;;24.66;96.12;101150.81;4963255;28;20051;-83
2023/07/09 16:09:33;;;;;;;17.25;10.88;;;;;;;24.67;95.03;101125.69;4966991;28;20058;-83
2023/07/09 16:12:00;;;;;;;14.80;10.60;;;;;;;24.85;95.21;101121.22;4967516;28;20059;-82
2023/07/09 16:14:29;;;;;;;14.90;10.95;;;;;;;24.95;94.61;101110.72;4968209;28;20051;-83
2023/07/09 16:16:57;;;;;;;16.27;11.55;;;;;;;24.95;94.04;101103.50;4966207;28;20055;-81
2023/07/09 16:19:25;;;;;;;14.63;8.80;;;;;;;24.91;91.00;101067.56;4962538;28;20539;-81
2023/07/09 16:21:55;;;;;;;11.98;8.13;;;;;;;24.96;89.34;101058.84;4964059;28;20062;-83
2023/07/09 16:24:25;;;;;;;11.88;8.20;;;;;;;24.97;89.96;101049.75;4963046;28;20126;-81
2023/07/09 16:26:51;;;;;;;11.95;7.55;;;;;;;24.85;89.61;101036.38;4963315;28;20188;-82
2023/07/09 16:29:24;;;;;;;9.20;6.80;;;;;;;24.75;88.75;101034.34;4963518;28;20051;-81
2023/07/09 16:31:53;;;;;;;13.35;7.22;;;;;;;24.90;89.49;101046.38;4964374;28;20130;-82
2023/07/09 16:34:20;;;;;;;11.25;7.30;;;;;;;24.80;89.15;101023.72;4962138;28;20051;-80
2023/07/09 16:36:47;;;;;;;9.77;6.95;;;;;;;24.70;89.21;101012.84;4962678;28;20491;-81
2023/07/09 16:39:25;;;;;;;11.27;7.25;;;;;;;24.59;89.45;100997.63;4967576;28;20571;-82
2023/07/09 16:41:51;;;;;;;9.88;7.45;;;;;;;24.42;91.21;101007.50;4959528;28;20130;-82
2023/07/09 16:44:18;;;;;;;10.75;8.52;;;;;;;24.54;91.83;101031.53;4964788;28;20047;-82
2023/07/09 16:46:46;;;;;;;12.52;7.53;;;;;;;24.82;91.32;101028.84;4965400;28;20083;-82
2023/07/09 16:49:27;;;;;;;10.82;7.90;;;;;;;24.77;89.93;101029.56;4954570;28;20070;-81
2023/07/09 16:51:54;;;;;;;14.63;8.48;;;;;;;24.86;91.10;101054.06;4962977;28;20051;-81
2023/07/09 16:54:20;;;;;;;17.65;8.20;;;;;;;24.90;90.19;101049.88;4965275;28;20134;-81
2023/07/09 16:56:47;;;;;;;9.18;7.72;;;;;;;24.99;89.59;101067.19;4968161;28;20127;-81
2023/07/09 16:59:14;;;;;;;9.43;7.60;;;;;;;24.97;90.32;101071.16;4958725;28;20134;-81
2023/07/09 17:01:41;;;;;;;10.30;8.18;;;;;;;25.02;89.54;101069.41;4966586;28;20083;-83
2023/07/09 17:04:21;;;;;;;9.52;8.45;;;;;;;25.26;88.92;101078.09;4968958;28;20054;-81
2023/07/09 17:06:48;;;;;;;13.35;7.97;;;;;;;25.33;86.54;101077.94;4967829;28;20055;-81
2023/07/09 17:09:18;;;;;;;10.40;7.90;;;;;;;25.16;87.46;101075.25;4958583;29;20066;-81
2023/07/09 17:11:45;;;;;;;12.25;8.60;;;;;;;25.51;86.49;101087.63;4968648;29;20176;-82
2023/07/09 17:14:15;;;;;;;11.30;8.05;;;;;;;25.68;86.61;101091.13;4968396;28;20380;-81
2023/07/09 17:16:42;;;;;;;13.70;8.25;;;;;;;25.51;86.57;101074.22;4970517;28;20535;-82
2023/07/09 17:19:13;;;;;;;10.55;7.93;;;;;;;25.72;86.44;101071.63;4968143;28;20070;-82
2023/07/09 17:21:48;;;;;;;12.20;8.00;;;;;;;25.89;85.37;101076.16;4968779;28;20047;-82
2023/07/09 17:24:22;;;;;;;13.20;8.70;;;;;;;26.01;84.42;101072.28;4960702;29;20054;-82
2023/07/09 17:26:49;;;;;;;10.68;7.90;;;;;;;26.09;83.06;101058.47;4968330;28;20066;-83
2023/07/09 17:29:16;;;;;;;11.85;7.85;;;;;;;26.27;83.19;101054.66;4965234;29;20090;-82
2023/07/09 17:31:49;;;;;;;11.90;8.10;;;;;;;26.34;83.91;101051.84;4958935;28;20056;-82
2023/07/09 18:28:29;;;;;;;12.32;8.32;;;;;;;25.67;89.26;101017.13;5140746;23;20164;-82
2023/07/09 18:31:00;;;;;;;11.65;8.73;;;;;;;25.49;90.23;101031.59;4959863;29;20051;-80
2023/07/09 21:33:41;;;;;;;;;;;;;;;;;;;;;
2023/07/09 22:00:57;;;;;;;24.27;18.15;;;;;;;22.73;100.00;101198.56;4916682;28;20090;-82
2023/07/09 22:03:24;;;;;;;27.98;19.15;;;;;;;22.59;100.00;101179.25;4947433;28;20090;-79
2023/07/09 22:05:57;;;;;;;27.83;18.60;;;;;;;22.62;100.00;101185.97;4961260;28;20046;-79
2023/07/09 22:08:31;;;;;;;27.73;18.60;;;;;;;22.52;100.00;101173.16;4961526;28;20090;-78
2023/07/09 22:10:59;;;;;;;24.30;17.30;;;;;;;22.57;100.00;101178.66;4961686;28;20058;-79
2023/07/09 22:13:30;;;;;;;27.63;18.35;;;;;;;22.60;100.00;101196.06;4961922;28;20430;-78
2023/07/09 22:15:58;;;;;;;27.05;18.92;;;;;;;22.54;100.00;101195.09;4962104;29;20147;-78
2023/07/09 22:18:25;;;;;;;29.80;18.85;;;;;;;22.52;100.00;101203.31;4962702;28;20106;-79
2023/07/09 22:20:52;;;;;;;30.55;19.35;;;;;;;22.37;100.00;101199.34;4962151;29;20058;-79
2023/07/09 22:23:22;;;;;;;26.50;19.10;;;;;;;22.40;100.00;101212.25;4962164;28;20051;-79
2023/07/09 22:25:49;;;;;;;26.85;20.15;;;;;;;22.23;100.00;101197.84;4962874;28;20047;-80
2023/07/09 22:28:22;;;;;;;33.45;22.27;;;;;;;22.33;100.00;101203.50;4959439;29;20115;-80
2023/07/09 22:30:51;;;;;;;32.97;20.60;;;;;;;22.26;100.00;101189.41;4963268;29;20539;-79
2023/07/09 22:33:24;;;;;;;30.05;23.30;;;;;;;22.14;100.00;101178.66;4959626;29;20051;-79
2023/07/09 22:36:03;;;;;;;;;;;;;;;22.20;100.00;101199.13;4960922;28;20090;-79
2023/07/09 22:38:30;;;;;;;31.60;23.38;;;;;;;22.19;100.00;101197.47;4958487;28;19945;-78
2023/07/09 22:41:12;;;;;;;;;;;;;;;;;;;;;
2023/07/09 22:43:43;;;;;;;;;;;;;;;22.17;100.00;101216.38;4958664;28;20125;-79
2023/07/09 22:46:17;;;;;;;37.55;25.92;;;;;;;22.12;100.00;101216.19;4959805;29;20310;-78
2023/07/09 22:48:46;;;;;;;37.38;25.80;;;;;;;22.02;100.00;101202.53;4956584;28;20214;-78
2023/07/09 22:51:13;;;;;;;37.70;25.90;;;;;;;22.13;100.00;101212.50;4957202;28;20058;-79
2023/07/09 22:53:40;;;;;;;37.17;28.42;;;;;;;22.04;100.00;101205.81;4958881;28;20083;-79
2023/07/09 22:56:06;;;;;;;33.60;26.13;;;;;;;22.08;100.00;101208.84;4958933;29;20135;-80
2023/07/09 22:58:34;;;;;;;32.55;25.42;;;;;;;22.03;100.00;101214.84;4959264;28;20051;-80
2023/07/09 23:01:12;;;;;;;32.92;27.40;;;;;;;22.08;100.00;101212.34;4962725;28;20114;-79
2023/07/09 23:03:43;;;;;;;34.10;26.67;;;;;;;22.11;100.00;101219.06;4962694;28;20134;-79
2023/07/09 23:06:12;;;;;;;42.40;27.55;;;;;;;22.07;100.00;101212.56;4958605;28;20058;-79
2023/07/09 23:11:25;;;;;;;39.15;25.58;;;;;;;22.13;100.00;101217.00;4954321;29;20051;-82
2023/07/09 23:14:05;;;;;;;37.58;27.27;;;;;;;22.11;100.00;101222.56;4958194;29;20460;-83
2023/07/09 23:16:44;;;;;;;33.75;26.27;;;;;;;22.16;100.00;101216.56;4958210;28;20142;-83
2023/07/09 23:19:33;;;;;;;32.10;25.40;;;;;;;22.13;100.00;101217.00;4957983;29;20423;-82
2023/07/09 23:22:03;;;;;;;30.30;24.85;;;;;;;22.08;100.00;101208.84;4958312;28;20546;-79
2023/07/09 23:24:32;;;;;;;31.98;26.35;;;;;;;22.07;100.00;101201.88;4946819;28;20054;-80
2023/07/09 23:27:01;;;;;;;36.17;26.17;;;;;;;22.10;100.00;101210.25;4958502;28;20055;-80
2023/07/09 23:29:33;;;;;;;34.83;26.42;;;;;;;21.99;100.00;101205.59;4956905;28;20055;-79
2023/07/09 23:32:03;;;;;;;36.75;26.70;;;;;;;21.88;100.00;101210.81;4952867;28;20062;-80
2023/07/09 23:34:32;;;;;;;32.70;26.63;;;;;;;21.91;100.00;101213.03;4956971;28;20106;-80
2023/07/09 23:37:03;;;;;;;32.00;25.67;;;;;;;21.85;100.00;101217.38;4952769;28;20388;-79
2023/07/09 23:46:49;;;;;;;37.05;24.52;;;;;;;21.59;100.00;101201.59;4882696;29;20568;-80
2023/07/09 23:56:44;;;;;;;39.63;24.30;;;;;;;21.55;100.00;101211.03;4923704;28;20106;-82
